createdAt,value
2022-11-20T03:08:59.622Z,4.69
2022-11-20T03:11:27.888Z,4.61
2022-11-20T03:13:54.879Z,4.56
2022-11-20T03:16:22.698Z,4.51
2022-11-20T03:18:50.133Z,4.41
2022-11-20T03:21:17.467Z,4.44
2022-11-20T03:23:44.470Z,4.56
2022-11-20T03:26:15.264Z,4.51
2022-11-20T03:28:43.168Z,4.64
2022-11-20T03:31:11.701Z,4.74
2022-11-20T03:33:39.117Z,4.64
2022-11-20T03:36:07.567Z,4.49
2022-11-20T03:38:34.832Z,4.41
2022-11-20T03:41:06.898Z,4.28
2022-11-20T03:43:34.489Z,4.35
2022-11-20T03:46:01.594Z,4.32
2022-11-20T03:48:28.799Z,4.33
2022-11-20T03:51:12.555Z,4.34
2022-11-20T03:53:40.506Z,4.17
2022-11-20T03:56:08.382Z,4.16
2022-11-20T03:58:37.923Z,4.18
2022-11-20T04:01:05.851Z,4.08
2022-11-20T04:03:32.969Z,4.07
2022-11-20T04:06:06.983Z,4.08
2022-11-20T04:08:34.599Z,4.11
2022-11-20T04:11:10.759Z,4.16
2022-11-20T04:13:38.148Z,4.17
2022-11-20T04:16:06.450Z,4.17
2022-11-20T04:18:34.089Z,4.02
2022-11-20T04:21:01.220Z,4.01
2022-11-20T04:23:28.982Z,4.03
2022-11-20T04:25:56.136Z,3.95
2022-11-20T04:28:23.173Z,4.09
2022-11-20T04:30:50.283Z,4.01
2022-11-20T04:33:17.281Z,3.98
2022-11-20T04:35:46.486Z,3.85
2022-11-20T04:38:13.470Z,3.73
2022-11-20T04:40:40.584Z,3.68
2022-11-20T04:43:07.571Z,3.65
2022-11-20T04:45:34.566Z,3.70
2022-11-20T04:48:01.641Z,3.67
2022-11-20T04:50:28.736Z,3.54
2022-11-20T04:52:55.773Z,3.69
2022-11-20T04:55:22.948Z,3.65
2022-11-20T04:57:53.255Z,3.59
2022-11-20T05:00:20.564Z,3.60
2022-11-20T05:02:47.923Z,3.52
2022-11-20T05:05:15.195Z,3.44
2022-11-20T05:07:42.521Z,3.46
2022-11-20T05:10:10.073Z,3.53
2022-11-20T05:12:37.426Z,3.45
2022-11-20T05:15:05.408Z,3.53
2022-11-20T05:17:32.962Z,3.67
2022-11-20T05:20:00.089Z,3.73
2022-11-20T05:22:27.210Z,3.69
2022-11-20T05:24:54.302Z,3.66
2022-11-20T05:27:21.280Z,3.61
2022-11-20T05:29:48.412Z,3.62
2022-11-20T05:32:15.409Z,3.69
2022-11-20T05:34:42.492Z,3.65
2022-11-20T05:37:09.751Z,3.59
2022-11-20T05:39:36.968Z,3.62
2022-11-20T05:42:23.122Z,3.58
2022-11-20T05:44:50.408Z,3.62
2022-11-20T05:47:17.730Z,3.69
2022-11-20T05:49:44.939Z,3.75
2022-11-20T05:52:12.227Z,3.72
2022-11-20T05:54:39.662Z,3.56
2022-11-20T05:57:06.871Z,3.49
2022-11-20T05:59:34.197Z,3.45
2022-11-20T06:02:01.532Z,3.35
2022-11-20T06:04:28.801Z,3.36
2022-11-20T06:06:56.064Z,3.41
2022-11-20T06:09:23.488Z,3.49
2022-11-20T06:11:50.871Z,3.47
2022-11-20T06:14:18.103Z,3.39
2022-11-20T06:16:45.305Z,3.41
2022-11-20T06:19:12.589Z,3.35
2022-11-20T06:21:39.867Z,3.42
2022-11-20T06:24:09.451Z,3.33
2022-11-20T06:26:36.801Z,3.29
2022-11-20T06:29:04.129Z,3.33
2022-11-20T06:31:33.805Z,3.31
2022-11-20T06:34:01.349Z,3.41
2022-11-20T06:36:28.579Z,3.31
2022-11-20T06:38:58.426Z,3.29
2022-11-20T06:41:26.436Z,3.32
2022-11-20T06:43:53.957Z,3.24
2022-11-20T06:46:21.745Z,3.31
2022-11-20T06:48:49.992Z,3.35
2022-11-20T06:51:17.556Z,3.33
2022-11-20T06:53:44.908Z,3.36
2022-11-20T06:56:12.165Z,3.48
2022-11-20T06:58:39.461Z,3.39
2022-11-20T07:01:14.724Z,3.43
2022-11-20T07:03:42.844Z,3.41
2022-11-20T07:06:10.327Z,3.47
2022-11-20T07:08:38.009Z,3.49
2022-11-20T07:11:07.910Z,3.52
2022-11-20T07:13:35.466Z,3.57
2022-11-20T07:16:05.838Z,3.62
2022-11-20T07:18:33.498Z,3.74
2022-11-20T07:21:02.643Z,3.83
2022-11-20T07:23:29.971Z,3.85
2022-11-20T07:25:57.252Z,3.96
2022-11-20T07:28:24.527Z,4.03
2022-11-20T07:30:53.418Z,4.13
2022-11-20T07:33:21.456Z,4.32
2022-11-20T07:35:48.839Z,4.29
2022-11-20T07:38:16.114Z,4.36
2022-11-20T07:40:45.251Z,4.42
2022-11-20T07:43:12.548Z,4.54
2022-11-20T07:45:44.475Z,4.89
2022-11-20T07:48:11.858Z,5.38
2022-11-20T07:50:39.382Z,5.83
2022-11-20T07:53:09.964Z,6.12
2022-11-20T07:55:49.340Z,6.41
2022-11-20T07:58:16.781Z,6.79
2022-11-20T08:00:52.748Z,6.90
2022-11-20T08:03:24.637Z,7.28
2022-11-20T08:05:52.649Z,7.58
2022-11-20T08:08:20.115Z,7.68
2022-11-20T08:10:47.367Z,7.96
2022-11-20T08:13:33.174Z,8.48
2022-11-20T08:16:00.451Z,8.62
2022-11-20T08:18:32.450Z,8.66
2022-11-20T08:21:04.931Z,8.94
2022-11-20T08:23:32.375Z,9.35
2022-11-20T08:25:59.659Z,9.53
2022-11-20T08:28:26.991Z,9.65
2022-11-20T08:31:02.011Z,10.06
2022-11-20T08:33:35.235Z,10.46
2022-11-20T08:36:04.379Z,10.93
2022-11-20T08:38:32.191Z,10.92
2022-11-20T08:41:23.716Z,10.96
2022-11-20T08:43:52.169Z,11.15
2022-11-20T08:46:19.504Z,10.78
2022-11-20T08:48:46.998Z,10.88
2022-11-20T08:51:14.465Z,11.10
2022-11-20T08:53:42.436Z,11.25
2022-11-20T08:56:13.213Z,11.17
2022-11-20T08:59:09.986Z,11.33
2022-11-20T09:01:30.134Z,11.41
2022-11-20T09:03:58.151Z,11.53
2022-11-20T09:06:25.476Z,12.25
2022-11-20T10:55:52.343Z,12.58
2022-11-20T10:58:40.045Z,12.45
2022-11-20T11:01:15.937Z,12.31
2022-11-20T11:03:50.600Z,12.17
2022-11-20T11:06:35.301Z,12.23
2022-11-20T11:12:29.287Z,12.07
2022-11-20T11:15:04.838Z,12.15
2022-11-20T11:20:24.976Z,12.13
2022-11-20T11:22:57.838Z,12.01
2022-11-20T11:28:18.287Z,12.15
2022-11-20T11:30:51.777Z,12.32
2022-11-20T11:33:39.885Z,12.33
2022-11-20T11:36:18.151Z,12.21
2022-11-20T11:38:45.929Z,12.16
2022-11-20T11:41:19.464Z,12.13
2022-11-20T11:48:16.468Z,12.15
2022-11-20T11:55:35.990Z,12.19
2022-11-20T11:58:24.055Z,12.23
2022-11-20T12:01:17.396Z,12.19
2022-11-20T12:03:52.404Z,12.13
2022-11-20T12:06:38.515Z,12.05
2022-11-20T12:09:41.101Z,12.13
2022-11-20T12:12:43.955Z,12.09
2022-11-20T12:15:19.870Z,12.11
2022-11-20T12:17:49.051Z,11.93
2022-11-20T12:20:17.329Z,12.05
2022-11-20T12:23:01.152Z,12.16
2022-11-20T12:25:34.561Z,12.06
2022-11-20T12:28:01.753Z,12.18
2022-11-20T12:34:00.678Z,12.13
2022-11-20T12:36:49.230Z,12.09
2022-11-20T12:39:26.364Z,12.10
2022-11-20T12:42:32.918Z,11.96
2022-11-20T12:45:22.400Z,12.02
2022-11-20T12:48:17.164Z,11.88
2022-11-20T12:51:13.850Z,11.94
2022-11-20T12:53:53.421Z,12.11
2022-11-20T12:56:34.106Z,12.00
2022-11-20T12:59:14.940Z,11.96
2022-11-20T13:02:02.696Z,12.01
2022-11-20T13:05:17.221Z,11.97
2022-11-20T13:07:57.365Z,11.95
2022-11-20T13:14:26.595Z,11.87
2022-11-20T13:17:06.257Z,11.81
2022-11-20T13:19:35.613Z,11.81
2022-11-20T13:22:05.823Z,11.76
2022-11-20T13:27:52.231Z,11.83
2022-11-20T13:30:24.699Z,11.98
2022-11-20T13:33:09.948Z,11.86
2022-11-20T13:35:44.738Z,11.80
2022-11-20T13:38:14.667Z,11.78
2022-11-20T13:41:28.028Z,11.68
2022-11-20T13:44:08.706Z,11.74
2022-11-20T13:46:46.496Z,11.84
2022-11-20T13:49:45.238Z,11.65
2022-11-20T13:52:22.272Z,11.56
2022-11-20T13:55:17.915Z,11.59
2022-11-20T13:57:51.839Z,11.66
2022-11-20T14:00:22.414Z,11.56
2022-11-20T14:03:03.365Z,11.50
2022-11-20T14:05:36.082Z,11.59
2022-11-20T14:08:13.127Z,11.57
2022-11-20T14:10:44.027Z,11.41
2022-11-20T14:16:07.380Z,11.30
2022-11-20T14:18:37.658Z,11.25
2022-11-20T14:21:07.320Z,11.28
2022-11-20T14:23:34.853Z,11.24
2022-11-20T14:28:53.057Z,11.10
2022-11-20T14:31:41.371Z,11.08
2022-11-20T14:34:39.604Z,11.12
2022-11-20T14:37:38.952Z,11.06
2022-11-20T14:40:38.557Z,11.11
2022-11-20T14:43:20.122Z,11.04
2022-11-20T14:45:49.999Z,10.93
2022-11-20T14:48:48.068Z,10.84
2022-11-20T14:51:09.209Z,10.74
2022-11-20T14:53:39.971Z,10.70
2022-11-20T14:56:13.118Z,10.72
2022-11-20T14:59:01.730Z,10.64
2022-11-20T15:04:28.122Z,10.58
2022-11-20T15:07:04.361Z,10.56
2022-11-20T15:09:31.589Z,10.38
2022-11-20T15:12:00.698Z,10.29
2022-11-20T15:14:28.875Z,10.26
2022-11-20T15:16:56.106Z,10.20
2022-11-20T15:19:24.485Z,10.16
2022-11-20T15:21:51.794Z,10.10
2022-11-20T15:24:18.859Z,10.08
2022-11-20T15:26:46.259Z,9.97
2022-11-20T15:29:15.747Z,9.98
2022-11-20T15:31:44.249Z,9.93
2022-11-20T15:34:14.575Z,9.95
2022-11-20T15:36:42.135Z,9.71
2022-11-20T15:39:09.564Z,9.45
2022-11-20T15:41:37.441Z,9.26
2022-11-20T15:44:05.235Z,9.10
2022-11-20T15:46:38.290Z,9.09
2022-11-20T15:49:06.064Z,9.05
2022-11-20T15:51:42.276Z,9.07
2022-11-20T15:54:21.432Z,8.88
2022-11-20T15:56:50.554Z,8.67
2022-11-20T15:59:17.994Z,8.49
2022-11-20T16:01:45.491Z,8.39
2022-11-20T16:04:14.667Z,8.33
2022-11-20T16:06:42.610Z,8.26
2022-11-20T16:09:10.530Z,8.05
2022-11-20T16:11:38.412Z,7.93
2022-11-20T16:14:25.758Z,7.80
2022-11-20T16:16:53.391Z,7.68
2022-11-20T16:19:20.831Z,7.74
2022-11-20T16:21:48.057Z,7.64
2022-11-20T16:24:16.872Z,7.60
2022-11-20T16:26:44.332Z,7.51
2022-11-20T16:29:11.638Z,7.38
2022-11-20T16:31:38.885Z,7.31
2022-11-20T16:34:11.889Z,7.19
2022-11-20T16:36:40.437Z,7.22
2022-11-20T16:39:07.517Z,7.21
2022-11-20T16:41:35.350Z,7.15
2022-11-20T16:44:03.252Z,7.08
2022-11-20T16:46:31.535Z,7.01
2022-11-20T16:48:59.753Z,6.96
2022-11-20T16:51:27.851Z,6.88
2022-11-20T16:53:56.060Z,6.77
2022-11-20T16:56:25.053Z,6.80
2022-11-20T16:58:53.824Z,6.71
2022-11-20T17:01:21.973Z,6.67
2022-11-20T17:03:57.074Z,6.66
2022-11-20T17:06:25.842Z,6.64
2022-11-20T17:08:53.892Z,6.50
2022-11-20T17:11:21.139Z,6.43
2022-11-20T17:13:48.416Z,6.47
2022-11-20T17:16:17.347Z,6.48
2022-11-20T17:18:44.851Z,6.44
2022-11-20T17:21:11.948Z,6.37
2022-11-20T17:23:40.374Z,6.39
2022-11-20T17:26:09.388Z,6.32
2022-11-20T17:28:36.968Z,6.32
2022-11-20T17:31:22.327Z,6.30
2022-11-20T17:33:49.551Z,6.24
2022-11-20T17:36:17.270Z,6.21
2022-11-20T17:38:44.683Z,6.06
2022-11-20T17:41:13.269Z,6.08
2022-11-20T17:43:40.935Z,5.96
2022-11-20T17:46:09.331Z,5.83
2022-11-20T17:48:37.299Z,5.84
2022-11-20T17:51:05.790Z,5.96
2022-11-20T17:53:35.085Z,5.95
2022-11-20T17:56:20.914Z,6.03
2022-11-20T17:58:48.284Z,5.95
2022-11-20T18:01:15.842Z,5.93
2022-11-20T18:04:09.966Z,5.93
2022-11-20T18:06:43.282Z,6.02
2022-11-20T18:09:11.518Z,5.99
2022-11-20T18:11:40.796Z,5.82
2022-11-20T18:14:31.222Z,5.81
2022-11-20T18:17:04.854Z,5.70
2022-11-20T18:19:37.621Z,5.74
2022-11-20T18:22:08.897Z,5.69
2022-11-20T18:24:37.255Z,5.68
2022-11-20T18:27:05.956Z,5.58
2022-11-20T18:29:33.818Z,5.53
2022-11-20T18:32:01.558Z,5.42
2022-11-20T18:34:29.123Z,5.37
2022-11-20T18:36:56.479Z,5.41
2022-11-20T18:39:24.177Z,5.36
2022-11-20T18:42:09.968Z,5.37
2022-11-20T18:44:54.820Z,5.46
2022-11-20T18:47:30.873Z,5.49
2022-11-20T18:50:00.920Z,5.56
2022-11-20T18:52:44.685Z,5.55
2022-11-20T18:55:12.932Z,5.53
2022-11-20T18:57:40.488Z,5.50
2022-11-20T19:00:09.812Z,5.48
2022-11-20T19:02:42.240Z,5.46
2022-11-20T19:05:12.192Z,5.41
2022-11-20T19:07:39.872Z,5.23
2022-11-20T19:10:08.003Z,5.27
2022-11-20T19:12:35.244Z,5.21
2022-11-20T19:15:03.068Z,5.28
2022-11-20T19:17:30.260Z,5.28
2022-11-20T19:19:57.497Z,5.29
2022-11-20T19:22:24.835Z,5.35
2022-11-20T19:24:52.072Z,5.37
2022-11-20T19:27:19.528Z,5.33
2022-11-20T19:29:46.915Z,5.24
2022-11-20T19:32:14.154Z,5.30
2022-11-20T19:34:41.666Z,5.20
2022-11-20T19:37:09.827Z,5.18
2022-11-20T19:39:37.379Z,5.13
2022-11-20T19:42:04.879Z,5.11
2022-11-20T19:44:33.165Z,5.10
2022-11-20T19:47:03.040Z,5.04
2022-11-20T19:49:31.664Z,5.01
2022-11-20T19:51:59.167Z,4.89
2022-11-20T19:54:26.798Z,4.87
2022-11-20T19:56:55.590Z,4.86
2022-11-20T19:59:23.365Z,4.91
2022-11-20T20:01:50.931Z,4.91
2022-11-20T20:04:18.778Z,4.91
2022-11-20T20:06:46.901Z,4.94
2022-11-20T20:09:14.456Z,4.92
2022-11-20T20:11:45.939Z,5.00
2022-11-20T20:14:15.924Z,4.97
2022-11-20T20:16:43.547Z,4.88
2022-11-20T20:19:15.721Z,4.87
2022-11-20T20:21:44.383Z,4.94
2022-11-20T20:24:12.112Z,4.88
2022-11-20T20:26:40.214Z,4.83
2022-11-20T20:29:07.888Z,4.76
2022-11-20T20:31:38.919Z,4.74
2022-11-20T20:34:06.557Z,4.73
2022-11-20T20:36:34.065Z,4.65
2022-11-20T20:39:02.987Z,4.59
2022-11-20T20:41:31.388Z,4.49
2022-11-20T20:44:17.326Z,4.43
2022-11-20T20:46:46.511Z,4.43
2022-11-20T20:49:14.229Z,4.40
2022-11-20T20:51:44.631Z,4.48
2022-11-20T20:54:12.319Z,4.58
2022-11-20T20:56:40.061Z,4.68
2022-11-20T20:59:07.787Z,4.67
2022-11-20T21:01:35.752Z,4.83
2022-11-20T21:04:03.453Z,4.88
2022-11-20T21:06:30.902Z,4.82
2022-11-20T21:08:59.355Z,4.74
2022-11-20T21:11:36.363Z,4.65
2022-11-20T21:14:08.464Z,4.61
2022-11-20T21:17:13.688Z,4.53
2022-11-20T21:19:56.661Z,4.50
2022-11-20T21:22:36.544Z,4.48
2022-11-20T21:25:07.967Z,4.49
2022-11-20T21:28:34.624Z,4.48
2022-11-20T21:31:35.084Z,4.42
2022-11-20T21:34:14.821Z,4.42
2022-11-20T21:37:02.920Z,4.53
2022-11-20T21:40:09.025Z,4.64
2022-11-20T21:42:43.300Z,4.71
2022-11-20T21:45:14.925Z,4.61
2022-11-20T21:47:59.317Z,4.53
2022-11-20T21:50:27.433Z,4.52
2022-11-20T21:53:04.021Z,4.47
2022-11-20T21:55:37.090Z,4.49
2022-11-20T21:58:06.858Z,4.47
2022-11-20T22:00:37.105Z,4.26
2022-11-20T22:03:14.845Z,4.24
2022-11-20T22:05:45.001Z,4.29
2022-11-20T22:08:27.989Z,4.14
2022-11-20T22:11:13.840Z,4.06
2022-11-20T22:14:12.670Z,4.11
2022-11-20T22:16:44.972Z,4.03
2022-11-20T22:22:33.901Z,3.95
2022-11-20T22:25:30.480Z,3.94
2022-11-20T22:28:17.626Z,3.85
2022-11-20T22:30:48.445Z,3.88
2022-11-20T22:36:26.994Z,3.89
2022-11-20T22:39:08.820Z,3.79
2022-11-20T22:42:18.546Z,3.96
2022-11-20T22:44:59.172Z,3.90
2022-11-20T22:47:39.466Z,4.04
2022-11-20T22:50:21.300Z,4.01
2022-11-20T22:52:52.844Z,4.19
2022-11-20T22:55:30.064Z,4.18
2022-11-20T22:58:02.502Z,4.34
2022-11-20T23:00:48.781Z,4.24
2022-11-20T23:03:16.945Z,4.28
2022-11-20T23:11:17.047Z,4.40
2022-11-20T23:14:00.061Z,4.45
2022-11-20T23:16:48.780Z,4.50
2022-11-20T23:22:19.461Z,4.55
2022-11-20T23:27:48.989Z,4.65
2022-11-20T23:30:20.335Z,4.62
2022-11-20T23:32:49.056Z,4.54
2022-11-20T23:35:46.660Z,4.67
2022-11-20T23:38:25.774Z,4.66
2022-11-20T23:40:56.397Z,4.88
2022-11-20T23:43:40.229Z,4.78
2022-11-20T23:46:20.564Z,4.87
2022-11-20T23:52:34.667Z,4.82
2022-11-20T23:55:27.719Z,4.77
2022-11-20T23:58:14.934Z,4.68
